createdAt,value
2022-10-18T00:00:05.531Z,10.10
2022-10-18T00:01:05.543Z,7.30
2022-10-18T00:02:05.632Z,7.20
2022-10-18T00:03:05.533Z,12.70
2022-10-18T00:04:05.482Z,7.20
2022-10-18T00:05:05.505Z,11.70
2022-10-18T00:06:05.504Z,7.10
2022-10-18T00:07:05.460Z,5.80
2022-10-18T00:08:05.474Z,12.80
2022-10-18T00:09:05.432Z,10.60
2022-10-18T00:10:05.436Z,7.40
2022-10-18T00:11:05.414Z,12.60
2022-10-18T00:12:05.414Z,9.70
2022-10-18T00:13:05.412Z,12.10
2022-10-18T00:14:05.397Z,9.10
2022-10-18T00:15:05.375Z,9.90
2022-10-18T00:16:05.344Z,7.80
2022-10-18T00:17:05.346Z,9.90
2022-10-18T00:18:05.345Z,10.80
2022-10-18T00:19:05.319Z,10.90
2022-10-18T00:20:05.326Z,10.40
2022-10-18T00:21:05.298Z,7.90
2022-10-18T00:22:05.277Z,9.60
2022-10-18T00:23:05.278Z,10.70
2022-10-18T00:24:05.265Z,14.00
2022-10-18T00:25:05.287Z,9.90
2022-10-18T00:26:05.239Z,7.80
2022-10-18T00:27:05.274Z,15.00
2022-10-18T00:28:05.211Z,7.50
2022-10-18T00:29:05.209Z,11.30
2022-10-18T00:30:05.207Z,9.20
2022-10-18T00:31:05.209Z,8.30
2022-10-18T00:32:05.178Z,9.60
2022-10-18T00:33:05.157Z,9.10
2022-10-18T00:34:05.148Z,14.60
2022-10-18T00:35:05.141Z,11.50
2022-10-18T00:36:05.171Z,12.90
2022-10-18T00:37:05.111Z,7.60
2022-10-18T00:38:05.091Z,8.70
2022-10-18T00:39:05.099Z,10.00
2022-10-18T00:40:05.132Z,8.30
2022-10-18T00:41:05.092Z,9.80
2022-10-18T00:42:05.115Z,10.40
2022-10-18T00:43:05.045Z,11.60
2022-10-18T00:44:05.032Z,11.50
2022-10-18T00:45:05.032Z,15.90
2022-10-18T00:46:05.018Z,10.60
2022-10-18T00:47:05.004Z,8.80
2022-10-18T00:48:05.247Z,11.90
2022-10-18T00:49:04.971Z,13.70
2022-10-18T00:50:05.673Z,10.90
2022-10-18T00:51:04.963Z,9.50
2022-10-18T00:52:04.977Z,8.70
2022-10-18T00:53:04.955Z,9.30
2022-10-18T00:54:04.958Z,10.40
2022-10-18T00:55:04.933Z,14.30
2022-10-18T00:56:04.894Z,10.90
2022-10-18T00:57:04.882Z,9.10
2022-10-18T00:58:04.887Z,8.10
2022-10-18T00:59:04.870Z,14.50
2022-10-18T01:00:04.864Z,13.50
2022-10-18T01:01:04.845Z,13.80
2022-10-18T01:02:04.854Z,12.30
2022-10-18T01:03:04.818Z,13.80
2022-10-18T01:04:04.805Z,9.50
2022-10-18T01:05:04.786Z,11.10
2022-10-18T01:06:04.805Z,13.70
2022-10-18T01:07:04.777Z,9.90
2022-10-18T01:08:04.764Z,8.90
2022-10-18T01:09:04.740Z,8.60
2022-10-18T01:10:04.739Z,9.20
2022-10-18T01:11:04.707Z,10.30
2022-10-18T01:12:04.753Z,10.60
2022-10-18T01:13:04.695Z,9.30
2022-10-18T01:14:04.688Z,13.40
2022-10-18T01:15:04.679Z,10.40
2022-10-18T01:16:04.670Z,11.50
2022-10-18T01:17:04.648Z,10.80
2022-10-18T01:18:04.661Z,12.80
2022-10-18T01:19:04.621Z,10.20
2022-10-18T01:20:04.623Z,11.70
2022-10-18T01:21:04.599Z,9.80
2022-10-18T01:22:04.615Z,12.70
2022-10-18T01:23:04.595Z,10.80
2022-10-18T01:24:04.603Z,13.70
2022-10-18T01:25:04.594Z,9.70
2022-10-18T01:26:04.542Z,18.60
2022-10-18T01:27:04.543Z,10.80
2022-10-18T01:28:04.526Z,7.80
2022-10-18T01:29:04.575Z,12.50
2022-10-18T01:30:04.492Z,11.50
2022-10-18T01:31:04.483Z,12.40
2022-10-18T01:32:04.471Z,10.90
2022-10-18T01:33:04.459Z,11.00
2022-10-18T01:34:04.463Z,11.60
2022-10-18T01:35:04.473Z,10.90
2022-10-18T01:36:04.424Z,13.30
2022-10-18T01:37:04.413Z,9.20
2022-10-18T01:38:04.418Z,14.50
2022-10-18T01:39:04.392Z,11.80
2022-10-18T01:40:04.383Z,14.00
2022-10-18T01:41:04.429Z,11.60
2022-10-18T01:42:04.363Z,8.40
2022-10-18T01:43:04.377Z,15.00
2022-10-18T01:44:04.335Z,10.60
2022-10-18T01:45:04.333Z,11.40
2022-10-18T01:46:04.417Z,11.30
2022-10-18T01:47:04.294Z,10.20
2022-10-18T01:48:04.297Z,12.40
2022-10-18T01:49:04.280Z,13.10
2022-10-18T01:50:04.279Z,16.30
2022-10-18T01:51:04.270Z,13.30
2022-10-18T01:52:04.304Z,12.10
2022-10-18T01:53:04.227Z,16.80
2022-10-18T01:54:04.217Z,19.20
2022-10-18T01:55:04.206Z,15.10
2022-10-18T01:56:04.190Z,16.10
2022-10-18T01:57:04.653Z,17.50
2022-10-18T01:58:04.349Z,17.30
2022-10-18T01:59:04.185Z,22.10
2022-10-18T02:00:04.148Z,23.90
2022-10-18T02:01:04.244Z,20.10
2022-10-18T02:02:04.130Z,19.60
2022-10-18T02:03:04.167Z,18.90
2022-10-18T02:04:04.121Z,18.00
2022-10-18T02:05:04.090Z,15.50
2022-10-18T02:06:04.080Z,14.60
2022-10-18T02:07:04.075Z,13.90
2022-10-18T02:08:22.122Z,15.80
2022-10-18T02:09:05.082Z,13.00
2022-10-18T02:10:04.131Z,14.90
2022-10-18T02:11:04.032Z,13.40
2022-10-18T02:12:04.003Z,16.80
2022-10-18T02:13:04.000Z,13.40
2022-10-18T02:14:04.013Z,18.20
2022-10-18T02:15:03.992Z,13.70
2022-10-18T02:16:03.967Z,14.10
2022-10-18T02:17:03.949Z,13.80
2022-10-18T02:18:03.941Z,11.90
2022-10-18T02:19:03.963Z,14.10
2022-10-18T02:20:03.939Z,13.30
2022-10-18T02:21:03.894Z,13.40
2022-10-18T02:22:03.894Z,15.30
2022-10-18T02:23:03.878Z,18.00
2022-10-18T02:24:03.863Z,12.50
2022-10-18T02:25:03.881Z,14.30
2022-10-18T02:26:03.872Z,18.90
2022-10-18T02:27:03.851Z,12.30
2022-10-18T02:28:04.070Z,16.60
2022-10-18T02:29:03.806Z,17.60
2022-10-18T02:30:03.805Z,11.40
2022-10-18T02:31:03.795Z,14.80
2022-10-18T02:32:03.822Z,16.10
2022-10-18T02:33:03.786Z,17.30
2022-10-18T02:34:04.705Z,20.70
2022-10-18T02:35:03.748Z,20.20
2022-10-18T02:36:03.728Z,12.40
2022-10-18T02:37:03.728Z,15.60
2022-10-18T02:38:03.726Z,15.10
2022-10-18T02:39:03.709Z,13.70
2022-10-18T02:40:03.706Z,24.50
2022-10-18T02:41:03.739Z,27.10
2022-10-18T02:42:03.674Z,17.90
2022-10-18T02:43:04.579Z,18.60
2022-10-18T02:44:03.770Z,17.10
2022-10-18T02:45:03.665Z,15.40
2022-10-18T02:46:03.681Z,73.80
2022-10-18T02:47:03.681Z,21.90
2022-10-18T02:48:03.608Z,17.00
2022-10-18T02:49:03.687Z,12.70
2022-10-18T02:50:03.609Z,17.30
2022-10-18T02:51:03.647Z,11.90
2022-10-18T02:52:03.540Z,12.20
2022-10-18T02:53:03.538Z,12.30
2022-10-18T02:54:03.512Z,12.80
2022-10-18T02:55:03.500Z,9.90
2022-10-18T02:56:03.531Z,11.70
2022-10-18T02:57:03.482Z,11.00
2022-10-18T02:58:03.471Z,10.20
2022-10-18T02:59:03.462Z,9.90
2022-10-18T03:00:03.481Z,11.10
2022-10-18T03:01:03.440Z,11.40
2022-10-18T03:02:03.476Z,9.80
2022-10-18T03:03:03.416Z,9.70
2022-10-18T03:04:03.396Z,16.90
2022-10-18T03:05:03.393Z,12.90
2022-10-18T03:06:03.371Z,15.40
2022-10-18T03:07:03.363Z,11.90
2022-10-18T03:08:03.370Z,14.10
2022-10-18T03:09:03.333Z,10.80
2022-10-18T03:10:03.324Z,9.40
2022-10-18T03:11:03.392Z,14.40
2022-10-18T03:12:03.298Z,12.00
2022-10-18T03:13:03.341Z,13.80
2022-10-18T03:14:03.317Z,14.80
2022-10-18T03:15:03.269Z,11.30
2022-10-18T03:16:03.245Z,12.30
2022-10-18T03:17:03.245Z,13.70
2022-10-18T03:18:03.226Z,11.60
2022-10-18T03:19:03.266Z,12.50
2022-10-18T03:20:03.222Z,14.20
2022-10-18T03:21:03.196Z,9.90
2022-10-18T03:22:03.206Z,9.60
2022-10-18T03:23:03.177Z,11.50
2022-10-18T03:24:03.155Z,20.40
2022-10-18T03:25:03.183Z,17.00
2022-10-18T03:26:03.137Z,9.20
2022-10-18T03:27:03.136Z,9.60
2022-10-18T03:28:03.117Z,6.70
2022-10-18T03:29:03.157Z,8.40
2022-10-18T03:30:03.158Z,8.80
2022-10-18T03:31:03.110Z,3.90
2022-10-18T03:32:03.081Z,7.30
2022-10-18T03:33:03.048Z,6.20
2022-10-18T03:34:03.714Z,6.60
2022-10-18T03:35:03.041Z,9.30
2022-10-18T03:36:03.054Z,10.30
2022-10-18T03:37:04.821Z,11.20
2022-10-18T03:38:02.988Z,11.70
2022-10-18T03:39:03.029Z,10.80
2022-10-18T03:40:02.979Z,12.50
2022-10-18T03:41:02.969Z,8.30
2022-10-18T03:42:02.982Z,10.00
2022-10-18T03:43:02.968Z,6.20
2022-10-18T03:44:02.961Z,7.00
2022-10-18T03:45:02.951Z,6.20
2022-10-18T03:46:02.947Z,9.30
2022-10-18T03:47:02.991Z,10.60
2022-10-18T03:48:02.892Z,7.80
2022-10-18T03:49:02.952Z,6.50
2022-10-18T03:50:02.868Z,8.30
2022-10-18T03:51:02.911Z,5.60
2022-10-18T03:52:02.887Z,7.30
2022-10-18T03:53:02.909Z,6.70
2022-10-18T03:54:02.814Z,5.60
2022-10-18T03:55:02.817Z,10.50
2022-10-18T03:56:02.796Z,7.00
2022-10-18T03:57:02.775Z,9.40
2022-10-18T03:58:02.810Z,6.10
2022-10-18T03:59:02.777Z,8.50
2022-10-18T04:00:02.754Z,8.20
2022-10-18T04:01:02.743Z,7.20
2022-10-18T04:02:02.817Z,7.70
2022-10-18T04:03:02.742Z,6.30
2022-10-18T04:04:02.714Z,5.20
2022-10-18T04:05:02.678Z,4.90
2022-10-18T04:06:02.667Z,8.90
2022-10-18T04:07:03.587Z,6.30
2022-10-18T04:08:02.656Z,3.60
2022-10-18T04:09:04.270Z,4.30
2022-10-18T04:10:02.626Z,7.20
2022-10-18T04:11:02.734Z,7.10
2022-10-18T04:12:02.631Z,6.90
2022-10-18T04:13:02.638Z,7.20
2022-10-18T04:14:02.579Z,5.00
2022-10-18T04:15:02.587Z,4.90
2022-10-18T04:16:02.566Z,5.30
2022-10-18T04:17:02.581Z,3.50
2022-10-18T04:18:02.548Z,3.10
2022-10-18T04:19:02.535Z,6.30
2022-10-18T04:20:02.539Z,6.50
2022-10-18T04:21:02.490Z,2.60
2022-10-18T04:22:02.479Z,3.50
2022-10-18T04:23:02.566Z,4.60
2022-10-18T04:24:02.450Z,3.80
2022-10-18T04:25:02.449Z,4.40
2022-10-18T04:26:02.489Z,3.20
2022-10-18T04:27:02.410Z,4.30
2022-10-18T04:28:02.400Z,5.50
2022-10-18T04:29:02.578Z,7.10
2022-10-18T04:30:02.409Z,6.30
2022-10-18T04:31:02.400Z,7.20
2022-10-18T04:32:02.404Z,6.10
2022-10-18T04:33:02.342Z,5.80
2022-10-18T04:34:02.352Z,7.60
2022-10-18T04:35:02.336Z,4.60
2022-10-18T04:36:02.314Z,8.50
2022-10-18T04:37:02.334Z,5.20
2022-10-18T04:38:02.335Z,6.00
2022-10-18T04:39:02.274Z,5.70
2022-10-18T04:40:02.302Z,5.50
2022-10-18T04:41:02.253Z,4.60
2022-10-18T04:42:02.254Z,4.90
2022-10-18T04:43:02.246Z,6.10
2022-10-18T04:44:02.244Z,5.90
2022-10-18T04:45:02.214Z,6.60
2022-10-18T04:46:02.214Z,5.90
2022-10-18T04:47:02.184Z,6.80
2022-10-18T04:48:02.184Z,9.30
2022-10-18T04:49:02.157Z,6.90
2022-10-18T04:50:02.178Z,5.50
2022-10-18T04:51:02.153Z,5.20
2022-10-18T04:52:02.205Z,8.70
2022-10-18T04:53:02.166Z,7.70
2022-10-18T04:54:06.454Z,7.20
2022-10-18T04:55:02.964Z,7.40
2022-10-18T04:56:02.111Z,7.40
2022-10-18T04:57:02.185Z,8.00
2022-10-18T04:58:02.198Z,6.90
2022-10-18T04:59:02.046Z,8.90
2022-10-18T05:00:02.040Z,5.80
2022-10-18T05:01:02.077Z,9.20
2022-10-18T05:03:02.988Z,7.20
2022-10-18T05:04:02.000Z,9.10
2022-10-18T05:05:01.977Z,8.10
2022-10-18T05:06:02.693Z,8.50
2022-10-18T05:07:01.992Z,8.00
2022-10-18T05:08:01.945Z,5.80
2022-10-18T05:09:01.923Z,10.20
2022-10-18T05:10:01.945Z,6.60
2022-10-18T05:11:01.968Z,7.10
2022-10-18T05:12:01.926Z,9.20
2022-10-18T05:13:01.905Z,6.00
2022-10-18T05:14:01.911Z,9.00
2022-10-18T05:15:04.072Z,6.90
2022-10-18T05:16:01.840Z,8.00
2022-10-18T05:17:01.832Z,9.50
2022-10-18T05:18:01.831Z,7.20
2022-10-18T05:19:01.801Z,6.20
2022-10-18T05:20:01.857Z,8.70
2022-10-18T05:21:01.792Z,5.30
2022-10-18T05:22:01.767Z,8.10
2022-10-18T05:23:01.782Z,10.70
2022-10-18T05:24:01.761Z,8.60
2022-10-18T05:25:01.737Z,7.40
2022-10-18T05:26:01.725Z,7.00
2022-10-18T05:27:01.703Z,7.50
2022-10-18T05:28:10.513Z,6.00
2022-10-18T05:29:02.842Z,7.70
2022-10-18T05:30:04.691Z,8.80
2022-10-18T05:31:01.676Z,8.80
2022-10-18T05:32:01.655Z,7.20
2022-10-18T05:33:01.809Z,7.90
2022-10-18T05:34:02.132Z,6.30
2022-10-18T05:35:01.619Z,7.40
2022-10-18T05:36:01.604Z,8.00
2022-10-18T05:37:01.599Z,9.10
2022-10-18T05:38:01.588Z,7.90
2022-10-18T05:39:04.135Z,9.90
2022-10-18T05:40:01.685Z,7.50
2022-10-18T05:41:01.550Z,7.40
2022-10-18T05:42:01.540Z,10.80
2022-10-18T05:43:01.533Z,8.70
2022-10-18T05:44:01.568Z,7.50
2022-10-18T05:45:01.539Z,9.70
2022-10-18T05:46:01.563Z,6.70
2022-10-18T05:47:01.487Z,6.90
2022-10-18T05:48:01.494Z,9.40
2022-10-18T05:49:01.457Z,8.20
2022-10-18T05:50:01.487Z,9.20
2022-10-18T05:51:01.437Z,10.10
2022-10-18T05:52:01.461Z,9.10
2022-10-18T05:53:12.568Z,7.00
2022-10-18T05:54:02.401Z,8.60
2022-10-18T05:55:01.441Z,10.60
2022-10-18T05:56:01.389Z,8.80
2022-10-18T05:57:01.555Z,7.80
2022-10-18T05:58:01.363Z,7.90
2022-10-18T05:59:01.359Z,21.50
2022-10-18T06:00:01.341Z,13.80
2022-10-18T06:01:01.326Z,10.50
2022-10-18T06:02:01.321Z,12.60
2022-10-18T06:03:01.359Z,9.80
2022-10-18T06:04:01.292Z,13.50
2022-10-18T06:05:01.271Z,10.30
2022-10-18T06:06:01.267Z,8.50
2022-10-18T06:07:01.258Z,8.60
2022-10-18T06:08:01.571Z,10.60
2022-10-18T06:09:01.280Z,7.70
2022-10-18T06:10:01.236Z,6.50
2022-10-18T06:11:01.205Z,8.30
2022-10-18T06:12:01.215Z,8.00
2022-10-18T06:13:01.183Z,8.20
2022-10-18T06:14:01.192Z,10.20
2022-10-18T06:15:01.236Z,9.60
2022-10-18T06:16:01.145Z,7.80
2022-10-18T06:17:01.153Z,8.20
2022-10-18T06:18:01.124Z,13.40
2022-10-18T06:19:01.146Z,8.70
2022-10-18T06:20:01.142Z,16.00
2022-10-18T06:21:01.085Z,10.60
2022-10-18T06:22:01.081Z,12.10
2022-10-18T06:23:01.064Z,10.00
2022-10-18T06:24:01.056Z,11.50
2022-10-18T06:25:01.046Z,10.30
2022-10-18T06:26:01.184Z,14.90
2022-10-18T06:27:01.053Z,11.30
2022-10-18T06:28:01.027Z,13.10
2022-10-18T06:29:01.066Z,14.30
2022-10-18T06:30:00.997Z,16.30
2022-10-18T06:31:01.007Z,16.70
2022-10-18T06:32:00.999Z,15.80
2022-10-18T06:33:00.969Z,14.20
2022-10-18T06:34:00.962Z,12.60
2022-10-18T06:35:00.932Z,13.00
2022-10-18T06:36:00.920Z,14.50
2022-10-18T06:37:01.008Z,11.70
2022-10-18T06:38:00.889Z,9.60
2022-10-18T06:39:00.879Z,9.80
2022-10-18T06:40:00.881Z,12.10
2022-10-18T06:41:00.874Z,14.10
2022-10-18T06:42:00.850Z,13.60
2022-10-18T06:44:01.821Z,13.50
2022-10-18T06:45:00.821Z,12.40
2022-10-18T06:46:00.810Z,10.90
2022-10-18T06:47:00.826Z,12.60
2022-10-18T06:48:00.796Z,10.80
2022-10-18T06:49:00.801Z,11.80
2022-10-18T06:50:00.831Z,9.80
2022-10-18T06:51:00.752Z,9.40
2022-10-18T06:52:00.733Z,9.00
2022-10-18T06:53:00.723Z,10.20
2022-10-18T06:54:16.836Z,9.60
2022-10-18T06:55:04.132Z,10.50
2022-10-18T06:56:00.974Z,13.20
2022-10-18T06:57:00.686Z,10.60
2022-10-18T06:58:00.662Z,12.00
2022-10-18T06:59:00.658Z,14.50
2022-10-18T07:00:00.643Z,12.10
2022-10-18T07:01:00.654Z,10.40
2022-10-18T07:02:00.702Z,10.60
2022-10-18T07:03:00.644Z,11.60
2022-10-18T07:04:00.595Z,8.30
2022-10-18T07:05:01.622Z,12.50
2022-10-18T07:06:00.696Z,11.70
2022-10-18T07:07:00.556Z,10.60
2022-10-18T07:08:00.555Z,11.40
2022-10-18T07:09:00.536Z,11.00
2022-10-18T07:10:00.546Z,10.00
2022-10-18T07:11:00.518Z,10.10
2022-10-18T07:12:00.535Z,10.80
2022-10-18T07:13:26.970Z,10.20
2022-10-18T07:14:01.584Z,11.10
2022-10-18T07:15:00.477Z,11.10
2022-10-18T07:16:00.557Z,8.70
2022-10-18T07:17:00.448Z,12.90
2022-10-18T07:18:00.998Z,12.70
2022-10-18T07:19:00.417Z,8.60
2022-10-18T07:20:00.407Z,9.20
2022-10-18T07:21:00.434Z,11.90
2022-10-18T07:22:00.408Z,13.50
2022-10-18T07:23:00.409Z,10.20
2022-10-18T07:24:00.593Z,11.50
2022-10-18T07:25:00.366Z,11.90
2022-10-18T07:26:00.339Z,12.40
2022-10-18T07:27:00.329Z,15.50
2022-10-18T07:28:00.320Z,10.30
2022-10-18T07:29:00.686Z,11.30
2022-10-18T07:30:00.292Z,9.10
2022-10-18T07:31:03.719Z,8.90
2022-10-18T07:32:01.270Z,9.70
2022-10-18T07:33:00.413Z,10.60
2022-10-18T07:34:00.256Z,8.90
2022-10-18T07:35:00.440Z,11.10
2022-10-18T07:36:00.262Z,8.70
2022-10-18T07:37:00.222Z,8.90
2022-10-18T07:38:00.204Z,9.20
2022-10-18T07:39:00.204Z,10.60
2022-10-18T07:40:00.420Z,10.00
2022-10-18T07:41:00.214Z,9.70
2022-10-18T07:42:00.205Z,11.30
2022-10-18T07:43:04.512Z,7.80
2022-10-18T07:44:00.144Z,9.10
2022-10-18T07:45:00.134Z,9.70
2022-10-18T07:46:00.145Z,9.20
2022-10-18T07:47:00.095Z,9.20
2022-10-18T07:48:00.085Z,8.40
2022-10-18T07:49:00.088Z,6.60
2022-10-18T07:50:00.080Z,9.10
2022-10-18T07:51:00.068Z,8.50
2022-10-18T07:52:00.166Z,8.50
2022-10-18T07:53:00.299Z,8.90
2022-10-18T07:54:00.128Z,11.00
2022-10-18T07:55:00.842Z,10.00
2022-10-18T07:56:01.388Z,9.20
2022-10-18T07:57:00.005Z,9.20
2022-10-18T07:57:59.987Z,16.60
2022-10-18T07:58:59.965Z,54.70
2022-10-18T07:59:59.949Z,36.90
2022-10-18T08:00:59.957Z,30.30
2022-10-18T08:02:00.042Z,13.40
2022-10-18T08:02:59.947Z,9.90
2022-10-18T08:04:03.241Z,8.50
2022-10-18T08:05:00.896Z,8.90
2022-10-18T08:05:59.881Z,7.40
2022-10-18T08:06:59.882Z,5.70
2022-10-18T08:08:01.933Z,6.50
2022-10-18T08:08:59.882Z,5.30
2022-10-18T08:09:59.841Z,4.40
2022-10-18T08:10:59.830Z,5.40
2022-10-18T08:11:59.809Z,4.10
2022-10-18T08:13:00.249Z,4.20
2022-10-18T08:13:59.779Z,5.10
2022-10-18T08:14:59.868Z,5.10
2022-10-18T08:15:59.819Z,6.10
2022-10-18T08:16:59.751Z,5.20
2022-10-18T08:17:59.730Z,8.20
2022-10-18T08:18:59.723Z,6.90
2022-10-18T08:20:11.495Z,8.20
2022-10-18T08:21:00.723Z,9.10
2022-10-18T08:21:59.706Z,9.90
2022-10-18T08:23:00.580Z,7.10
2022-10-18T08:24:00.006Z,8.80
2022-10-18T08:24:59.653Z,7.90
2022-10-18T08:25:59.663Z,8.00
2022-10-18T08:26:59.642Z,5.10
2022-10-18T08:27:59.695Z,5.60
2022-10-18T08:29:10.639Z,5.80
2022-10-18T08:30:00.693Z,2.90
2022-10-18T08:30:59.674Z,3.80
2022-10-18T08:31:59.604Z,3.00
2022-10-18T08:32:59.566Z,4.30
2022-10-18T08:33:59.805Z,2.20
2022-10-18T08:34:59.544Z,2.60
2022-10-18T08:35:59.529Z,3.00
2022-10-18T08:36:59.519Z,5.30
2022-10-18T08:37:59.524Z,4.00
2022-10-18T08:38:59.513Z,2.90
2022-10-18T08:39:59.486Z,5.20
2022-10-18T08:40:59.489Z,2.30
2022-10-18T08:41:59.465Z,2.70
2022-10-18T08:42:59.497Z,2.30
2022-10-18T08:44:01.074Z,2.30
2022-10-18T08:45:04.987Z,2.70
2022-10-18T08:46:00.428Z,3.60
2022-10-18T08:46:59.406Z,3.50
2022-10-18T08:47:59.700Z,2.90
2022-10-18T08:48:59.418Z,3.90
2022-10-18T08:49:59.368Z,2.60
2022-10-18T08:50:59.349Z,2.20
2022-10-18T08:51:59.367Z,2.80
2022-10-18T08:52:59.331Z,2.40
2022-10-18T08:53:59.335Z,2.20
2022-10-18T08:54:59.331Z,2.60
2022-10-18T08:55:59.322Z,1.80
2022-10-18T08:56:59.299Z,2.70
2022-10-18T08:57:59.282Z,4.40
2022-10-18T08:58:59.703Z,3.60
2022-10-18T08:59:59.276Z,2.90
2022-10-18T09:00:59.230Z,3.10
2022-10-18T09:01:59.231Z,2.10
2022-10-18T09:02:59.264Z,3.00
2022-10-18T09:03:59.201Z,3.20
2022-10-18T09:04:59.191Z,1.50
2022-10-18T09:05:59.227Z,2.10
2022-10-18T09:06:59.171Z,3.50
2022-10-18T09:07:59.163Z,2.10
2022-10-18T09:08:59.232Z,1.90
2022-10-18T09:09:59.133Z,3.50
2022-10-18T09:10:59.151Z,1.40
2022-10-18T09:12:01.897Z,1.90
2022-10-18T09:12:59.109Z,1.10
2022-10-18T09:13:59.131Z,1.50
2022-10-18T09:14:59.095Z,3.50
2022-10-18T09:15:59.087Z,2.20
2022-10-18T09:16:59.801Z,1.20
2022-10-18T09:17:59.046Z,1.10
2022-10-18T09:18:59.044Z,1.70
2022-10-18T09:20:59.133Z,2.10
2022-10-18T09:21:58.996Z,1.10
2022-10-18T09:22:59.034Z,3.10
2022-10-18T09:23:58.966Z,2.80
2022-10-18T09:24:58.957Z,1.70
2022-10-18T09:25:58.954Z,1.90
2022-10-18T09:26:58.933Z,1.40
2022-10-18T09:27:58.926Z,2.60
2022-10-18T09:28:59.076Z,1.40
2022-10-18T09:29:58.897Z,0.90
2022-10-18T09:30:59.785Z,1.60
2022-10-18T09:31:58.914Z,2.40
2022-10-18T09:32:59.018Z,1.20
2022-10-18T09:33:58.863Z,2.10
2022-10-18T09:34:58.876Z,1.90
2022-10-18T09:35:58.842Z,1.50
2022-10-18T09:36:58.819Z,0.90
2022-10-18T09:37:58.814Z,0.90
2022-10-18T09:39:00.398Z,0.80
2022-10-18T09:39:58.788Z,1.00
2022-10-18T09:40:58.799Z,1.20
2022-10-18T09:41:59.704Z,1.30
2022-10-18T09:42:58.762Z,2.60
2022-10-18T09:43:58.872Z,1.80
2022-10-18T09:44:58.722Z,1.40
2022-10-18T09:45:58.809Z,0.90
2022-10-18T09:46:58.717Z,0.80
2022-10-18T09:47:58.710Z,1.70
2022-10-18T09:48:58.683Z,1.00
2022-10-18T09:49:58.684Z,1.10
2022-10-18T09:50:58.653Z,1.00
2022-10-18T09:51:58.663Z,1.20
2022-10-18T09:52:58.636Z,0.90
2022-10-18T09:53:58.622Z,0.60
2022-10-18T09:54:58.633Z,2.80
2022-10-18T09:55:58.614Z,1.30
2022-10-18T09:56:58.597Z,1.40
2022-10-18T09:57:58.598Z,0.60
2022-10-18T09:58:58.583Z,0.80
2022-10-18T09:59:59.497Z,0.80
2022-10-18T10:00:58.564Z,0.90
2022-10-18T10:01:58.526Z,0.90
2022-10-18T10:02:58.525Z,0.50
2022-10-18T10:03:58.601Z,0.80
2022-10-18T10:04:58.533Z,0.50
2022-10-18T10:05:58.505Z,0.60
2022-10-18T10:06:58.467Z,1.10
2022-10-18T10:07:58.476Z,0.50
2022-10-18T10:08:58.530Z,0.60
2022-10-18T10:09:58.437Z,1.20
2022-10-18T10:10:58.467Z,1.90
2022-10-18T10:11:58.417Z,0.70
2022-10-18T10:12:58.398Z,1.20
2022-10-18T10:13:58.397Z,0.80
2022-10-18T10:14:58.401Z,0.50
2022-10-18T10:15:58.367Z,1.30
2022-10-18T10:16:58.359Z,0.80
2022-10-18T10:17:58.390Z,1.10
2022-10-18T10:18:58.331Z,2.20
2022-10-18T10:19:58.321Z,1.00
2022-10-18T10:20:58.995Z,3.30
2022-10-18T10:21:58.321Z,1.10
2022-10-18T10:22:58.281Z,0.80
2022-10-18T10:23:58.310Z,1.10
2022-10-18T10:24:58.411Z,0.60
2022-10-18T10:25:58.311Z,0.70
2022-10-18T10:26:58.344Z,0.90
2022-10-18T10:27:58.312Z,3.20
2022-10-18T10:28:58.311Z,0.90
2022-10-18T10:30:00.455Z,2.10
2022-10-18T10:30:58.192Z,1.80
2022-10-18T10:31:58.191Z,2.50
2022-10-18T10:32:58.193Z,0.60
2022-10-18T10:33:58.164Z,1.40
2022-10-18T10:34:58.146Z,1.70
2022-10-18T10:35:58.123Z,1.50
2022-10-18T10:36:58.172Z,1.10
2022-10-18T10:37:58.123Z,1.50
2022-10-18T10:38:58.124Z,1.80
2022-10-18T10:40:17.294Z,0.80
2022-10-18T10:40:59.075Z,0.70
2022-10-18T10:41:58.065Z,1.50
2022-10-18T10:43:08.789Z,1.00
2022-10-18T10:43:59.097Z,1.20
2022-10-18T10:44:58.038Z,3.20
2022-10-18T10:45:58.032Z,1.20
2022-10-18T10:46:58.043Z,0.80
2022-10-18T10:47:57.999Z,0.60
2022-10-18T10:49:20.761Z,0.50
2022-10-18T10:49:59.007Z,0.40
2022-10-18T10:50:57.966Z,1.10
2022-10-18T10:52:09.116Z,0.90
2022-10-18T10:52:59.038Z,0.60
2022-10-18T10:53:57.929Z,0.90
2022-10-18T10:55:06.181Z,0.80
2022-10-18T10:55:58.932Z,0.70
2022-10-18T10:56:57.902Z,1.60
2022-10-18T10:57:57.879Z,3.30
2022-10-18T10:58:57.953Z,1.60
2022-10-18T10:59:57.860Z,0.70
2022-10-18T11:00:57.992Z,3.10
2022-10-18T11:01:57.831Z,0.80
2022-10-18T11:03:06.046Z,2.40
2022-10-18T11:03:58.884Z,0.80
2022-10-18T11:04:57.819Z,1.20
2022-10-18T11:05:57.863Z,1.70
2022-10-18T11:06:58.050Z,1.10
2022-10-18T11:07:57.926Z,1.00
2022-10-18T11:08:57.810Z,0.80
2022-10-18T11:09:57.741Z,1.10
2022-10-18T11:10:57.762Z,2.00
2022-10-18T11:11:57.750Z,2.70
2022-10-18T11:12:57.783Z,0.50
2022-10-18T11:14:13.717Z,1.20
2022-10-18T11:14:58.703Z,3.50
2022-10-18T11:15:57.733Z,2.70
2022-10-18T11:16:57.887Z,0.40
2022-10-18T11:17:57.678Z,0.50
2022-10-18T11:18:57.703Z,0.90
2022-10-18T11:19:57.734Z,1.20
2022-10-18T11:20:57.725Z,0.50
2022-10-18T11:21:58.636Z,1.40
2022-10-18T11:22:58.715Z,0.50
2022-10-18T11:23:57.624Z,0.80
2022-10-18T11:24:57.575Z,0.50
2022-10-18T11:25:57.561Z,0.80
2022-10-18T11:26:57.555Z,0.80
2022-10-18T11:27:57.547Z,1.00
2022-10-18T11:28:57.635Z,0.60
2022-10-18T11:29:57.587Z,0.90
2022-10-18T11:30:57.528Z,2.50
2022-10-18T11:31:57.617Z,0.60
2022-10-18T11:32:57.518Z,0.80
2022-10-18T11:34:08.809Z,0.70
2022-10-18T11:34:58.545Z,0.50
2022-10-18T11:36:00.282Z,0.40
2022-10-18T11:37:22.855Z,2.70
2022-10-18T11:37:58.456Z,1.80
2022-10-18T11:38:57.410Z,0.70
2022-10-18T11:39:57.420Z,0.60
2022-10-18T11:40:57.578Z,2.60
2022-10-18T11:41:57.386Z,1.10
2022-10-18T11:42:57.412Z,0.90
2022-10-18T11:44:02.729Z,0.60
2022-10-18T11:44:58.456Z,0.40
2022-10-18T11:45:57.322Z,0.40
2022-10-18T11:46:57.381Z,0.90
2022-10-18T11:47:57.310Z,0.70
2022-10-18T11:48:57.306Z,1.50
2022-10-18T11:49:57.346Z,0.70
2022-10-18T11:50:57.292Z,1.40
2022-10-18T11:52:07.705Z,1.60
2022-10-18T11:52:58.253Z,0.40
2022-10-18T11:53:57.257Z,3.50
2022-10-18T11:54:57.242Z,1.20
2022-10-18T11:55:57.223Z,0.60
2022-10-18T11:56:57.197Z,0.50
2022-10-18T11:57:57.266Z,3.20
2022-10-18T11:58:57.177Z,1.30
2022-10-18T11:59:57.165Z,0.60
2022-10-18T12:00:57.419Z,3.10
2022-10-18T12:01:57.137Z,0.50
2022-10-18T12:02:57.225Z,1.40
2022-10-18T12:03:57.159Z,2.10
2022-10-18T12:05:22.188Z,2.00
2022-10-18T12:05:58.106Z,1.20
2022-10-18T12:06:57.088Z,1.50
2022-10-18T12:07:57.078Z,1.90
2022-10-18T12:08:57.093Z,1.20
2022-10-18T12:09:57.076Z,1.10
2022-10-18T12:11:05.070Z,1.90
2022-10-18T12:11:58.028Z,3.80
2022-10-18T12:12:57.009Z,1.40
2022-10-18T12:13:57.005Z,1.80
2022-10-18T12:14:57.058Z,2.10
2022-10-18T12:15:57.003Z,1.40
2022-10-18T12:17:19.050Z,4.20
2022-10-18T12:17:58.031Z,2.20
2022-10-18T12:18:56.965Z,2.80
2022-10-18T12:19:56.951Z,2.10
2022-10-18T12:20:56.940Z,1.10
2022-10-18T12:21:56.920Z,1.90
2022-10-18T12:22:56.893Z,3.00
2022-10-18T12:23:56.936Z,2.00
2022-10-18T12:24:56.975Z,2.10
2022-10-18T12:25:56.964Z,2.10
2022-10-18T12:26:56.892Z,3.20
2022-10-18T12:27:56.875Z,3.70
2022-10-18T12:28:56.903Z,1.80
2022-10-18T12:29:56.858Z,5.80
2022-10-18T12:30:56.803Z,2.20
2022-10-18T12:31:56.836Z,1.50
2022-10-18T12:33:03.698Z,2.20
2022-10-18T12:33:57.837Z,2.00
2022-10-18T12:34:56.776Z,3.30
2022-10-18T12:35:56.768Z,1.90
2022-10-18T12:36:56.768Z,3.50
2022-10-18T12:37:56.767Z,2.20
2022-10-18T12:38:56.719Z,3.30
2022-10-18T12:40:09.726Z,1.60
2022-10-18T12:40:57.796Z,1.90
2022-10-18T12:41:56.893Z,2.50
2022-10-18T12:42:56.717Z,1.60
2022-10-18T12:43:56.676Z,1.00
2022-10-18T12:44:56.648Z,1.20
2022-10-18T12:45:56.647Z,1.20
2022-10-18T12:46:56.629Z,1.10
2022-10-18T12:47:56.629Z,2.30
2022-10-18T12:48:56.685Z,2.60
2022-10-18T12:49:56.788Z,1.20
2022-10-18T12:50:56.580Z,2.40
2022-10-18T12:51:56.678Z,0.90
2022-10-18T12:52:56.560Z,3.80
2022-10-18T12:53:56.578Z,2.50
2022-10-18T12:54:56.573Z,2.20
2022-10-18T12:55:56.569Z,1.50
2022-10-18T12:56:56.570Z,1.70
2022-10-18T12:57:56.523Z,1.80
2022-10-18T12:58:56.490Z,2.00
2022-10-18T12:59:56.511Z,1.80
2022-10-18T13:00:56.553Z,1.20
2022-10-18T13:01:56.563Z,2.10
2022-10-18T13:02:56.454Z,2.20
2022-10-18T13:03:56.540Z,3.10
2022-10-18T13:04:56.472Z,2.10
2022-10-18T13:05:56.617Z,1.80
2022-10-18T13:06:56.486Z,2.80
2022-10-18T13:07:56.384Z,2.80
2022-10-18T13:08:56.382Z,2.20
2022-10-18T13:09:56.364Z,4.70
2022-10-18T13:10:56.415Z,1.30
2022-10-18T13:11:59.842Z,1.70
2022-10-18T13:12:57.397Z,1.50